sensor_id;sensor_type;location;lat;lon;timestamp;noise_LAeq;noise_LA_min;noise_LA_max;noise_LA01;noise_LA95
46749;Laerm;33775;47.992;11.864;2023-07-02T00:01:39;38.98;36.45;40.62;;
46749;Laerm;33775;47.992;11.864;2023-07-02T00:04:04;39.03;36.69;40.43;;
46749;Laerm;33775;47.992;11.864;2023-07-02T00:06:29;39.07;37.12;40.71;;
46749;Laerm;33775;47.992;11.864;2023-07-02T00:08:57;39.11;37.12;40.71;;
46749;Laerm;33775;47.992;11.864;2023-07-02T00:11:22;39.14;36.69;40.62;;
46749;Laerm;33775;47.992;11.864;2023-07-02T00:13:47;39.10;36.69;40.80;;
46749;Laerm;33775;47.992;11.864;2023-07-02T00:16:13;38.99;36.45;40.71;;
46749;Laerm;33775;47.992;11.864;2023-07-02T00:18:38;39.10;36.91;40.62;;
46749;Laerm;33775;47.992;11.864;2023-07-02T00:21:05;39.15;36.69;40.53;;
46749;Laerm;33775;47.992;11.864;2023-07-02T00:23:30;39.13;37.12;40.71;;
46749;Laerm;33775;47.992;11.864;2023-07-02T00:25:58;39.15;37.12;40.62;;
46749;Laerm;33775;47.992;11.864;2023-07-02T00:28:23;39.14;36.69;40.62;;
46749;Laerm;33775;47.992;11.864;2023-07-02T00:30:49;39.15;36.91;40.62;;
46749;Laerm;33775;47.992;11.864;2023-07-02T00:33:14;39.09;36.91;40.53;;
46749;Laerm;33775;47.992;11.864;2023-07-02T00:35:40;38.92;36.45;40.53;;
46749;Laerm;33775;47.992;11.864;2023-07-02T00:38:05;38.69;35.66;40.71;;
46749;Laerm;33775;47.992;11.864;2023-07-02T00:40:30;38.67;34.31;40.43;;
46749;Laerm;33775;47.992;11.864;2023-07-02T00:42:55;38.63;34.69;40.53;;
46749;Laerm;33775;47.992;11.864;2023-07-02T00:45:21;38.61;35.04;40.33;;
46749;Laerm;33775;47.992;11.864;2023-07-02T00:47:47;38.35;33.90;40.62;;
46749;Laerm;33775;47.992;11.864;2023-07-02T00:50:12;38.27;32.35;40.27;;
46749;Laerm;33775;47.992;11.864;2023-07-02T00:52:37;38.32;34.31;40.13;;
46749;Laerm;33775;47.992;11.864;2023-07-02T00:55:03;38.14;34.31;40.23;;
46749;Laerm;33775;47.992;11.864;2023-07-02T00:57:28;37.82;32.35;39.81;;
46749;Laerm;33775;47.992;11.864;2023-07-02T00:59:55;37.69;31.68;39.81;;
46749;Laerm;33775;47.992;11.864;2023-07-02T01:02:20;37.77;32.93;39.81;;
46749;Laerm;33775;47.992;11.864;2023-07-02T01:04:47;37.65;31.68;39.70;;
46749;Laerm;33775;47.992;11.864;2023-07-02T01:07:14;37.67;32.35;39.46;;
46749;Laerm;33775;47.992;11.864;2023-07-02T01:09:39;37.81;30.89;39.70;;
46749;Laerm;33775;47.992;11.864;2023-07-02T01:12:06;38.02;33.90;39.81;;
46749;Laerm;33775;47.992;11.864;2023-07-02T01:14:33;38.13;30.54;40.80;;
46749;Laerm;33775;47.992;11.864;2023-07-02T01:17:01;36.50;30.89;49.15;;
46749;Laerm;33775;47.992;11.864;2023-07-02T01:21:55;36.63;29.92;39.70;;
46749;Laerm;33775;47.992;11.864;2023-07-02T01:24:20;37.20;30.89;40.53;;
46749;Laerm;33775;47.992;11.864;2023-07-02T01:26:46;38.18;32.35;40.13;;
46749;Laerm;33775;47.992;11.864;2023-07-02T01:29:19;38.18;28.67;40.43;;
46749;Laerm;33775;47.992;11.864;2023-07-02T01:31:44;38.52;31.68;40.53;;
46749;Laerm;33775;47.992;11.864;2023-07-02T01:34:10;38.22;32.93;40.03;;
46749;Laerm;33775;47.992;11.864;2023-07-02T01:36:35;39.26;34.69;40.98;;
46749;Laerm;33775;47.992;11.864;2023-07-02T01:39:01;37.40;30.89;40.53;;
46749;Laerm;33775;47.992;11.864;2023-07-02T01:41:26;36.35;23.90;39.34;;
46749;Laerm;33775;47.992;11.864;2023-07-02T01:43:51;36.27;26.91;39.70;;
46749;Laerm;33775;47.992;11.864;2023-07-02T01:46:16;36.29;26.91;39.81;;
46749;Laerm;33775;47.992;11.864;2023-07-02T01:48:41;36.42;29.92;39.81;;
46749;Laerm;33775;47.992;11.864;2023-07-02T01:51:06;36.33;28.67;39.58;;
46749;Laerm;33775;47.992;11.864;2023-07-02T01:53:32;36.26;23.90;39.46;;
46749;Laerm;33775;47.992;11.864;2023-07-02T01:55:57;36.22;28.67;39.23;;
46749;Laerm;33775;47.992;11.864;2023-07-02T01:58:22;36.25;29.92;39.58;;
46749;Laerm;33775;47.992;11.864;2023-07-02T02:00:47;36.36;28.67;39.46;;
46749;Laerm;33775;47.992;11.864;2023-07-02T02:03:14;36.67;28.67;39.81;;
46749;Laerm;33775;47.992;11.864;2023-07-02T02:05:39;36.82;29.92;39.46;;
46749;Laerm;33775;47.992;11.864;2023-07-02T02:08:04;37.00;26.91;39.81;;
46749;Laerm;33775;47.992;11.864;2023-07-02T02:10:29;37.18;29.92;40.03;;
46749;Laerm;33775;47.992;11.864;2023-07-02T02:12:54;37.34;29.92;40.13;;
46749;Laerm;33775;47.992;11.864;2023-07-02T02:15:19;37.23;28.67;39.92;;
46749;Laerm;33775;47.992;11.864;2023-07-02T02:17:45;37.10;29.92;39.92;;
46749;Laerm;33775;47.992;11.864;2023-07-02T02:20:10;37.12;29.92;40.03;;
46749;Laerm;33775;47.992;11.864;2023-07-02T02:22:36;37.30;29.92;40.33;;
46749;Laerm;33775;47.992;11.864;2023-07-02T02:25:01;37.24;26.91;40.23;;
46749;Laerm;33775;47.992;11.864;2023-07-02T02:27:26;37.28;29.92;39.81;;
46749;Laerm;33775;47.992;11.864;2023-07-02T02:29:52;37.23;28.67;39.58;;
46749;Laerm;33775;47.992;11.864;2023-07-02T02:32:17;37.15;30.89;39.70;;
46749;Laerm;33775;47.992;11.864;2023-07-02T02:34:44;37.15;30.89;40.03;;
46749;Laerm;33775;47.992;11.864;2023-07-02T02:37:09;37.13;29.92;39.81;;
46749;Laerm;33775;47.992;11.864;2023-07-02T02:39:34;37.16;30.89;39.81;;
46749;Laerm;33775;47.992;11.864;2023-07-02T02:42:00;37.28;30.89;40.03;;
46749;Laerm;33775;47.992;11.864;2023-07-02T02:44:25;37.39;30.89;39.81;;
46749;Laerm;33775;47.992;11.864;2023-07-02T02:46:50;37.39;30.89;39.81;;
46749;Laerm;33775;47.992;11.864;2023-07-02T02:49:15;37.64;31.68;40.03;;
46749;Laerm;33775;47.992;11.864;2023-07-02T02:51:40;37.59;31.68;40.03;;
46749;Laerm;33775;47.992;11.864;2023-07-02T02:54:06;37.49;31.68;39.81;;
46749;Laerm;33775;47.992;11.864;2023-07-02T02:56:31;37.65;28.67;40.13;;
46749;Laerm;33775;47.992;11.864;2023-07-02T02:58:56;37.99;32.35;40.33;;
46749;Laerm;33775;47.992;11.864;2023-07-02T03:01:21;37.88;31.68;40.13;;
46749;Laerm;33775;47.992;11.864;2023-07-02T03:03:46;37.97;32.35;40.13;;
46749;Laerm;33775;47.992;11.864;2023-07-02T03:06:12;38.02;33.44;40.03;;
46749;Laerm;33775;47.992;11.864;2023-07-02T03:08:38;38.12;33.44;40.13;;
46749;Laerm;33775;47.992;11.864;2023-07-02T03:11:04;38.04;32.35;40.03;;
46749;Laerm;33775;47.992;11.864;2023-07-02T03:13:29;37.95;32.35;39.92;;
46749;Laerm;33775;47.992;11.864;2023-07-02T03:15:54;37.99;30.89;40.03;;
46749;Laerm;33775;47.992;11.864;2023-07-02T03:18:19;38.24;32.35;40.13;;
46749;Laerm;33775;47.992;11.864;2023-07-02T03:20:45;38.25;33.44;40.13;;
46749;Laerm;33775;47.992;11.864;2023-07-02T03:23:10;38.24;33.44;40.33;;
46749;Laerm;33775;47.992;11.864;2023-07-02T03:25:35;38.23;30.89;40.13;;
46749;Laerm;33775;47.992;11.864;2023-07-02T03:28:00;38.26;32.35;40.13;;
46749;Laerm;33775;47.992;11.864;2023-07-02T03:30:25;38.19;32.35;40.13;;
46749;Laerm;33775;47.992;11.864;2023-07-02T03:32:50;38.23;32.35;40.13;;
46749;Laerm;33775;47.992;11.864;2023-07-02T03:35:16;38.23;34.31;40.43;;
46749;Laerm;33775;47.992;11.864;2023-07-02T03:37:41;38.20;33.44;40.13;;
46749;Laerm;33775;47.992;11.864;2023-07-02T03:40:08;38.27;32.93;40.13;;
46749;Laerm;33775;47.992;11.864;2023-07-02T03:42:34;38.34;33.44;40.43;;
46749;Laerm;33775;47.992;11.864;2023-07-02T03:45:00;38.24;33.44;40.03;;
46749;Laerm;33775;47.992;11.864;2023-07-02T03:47:26;38.25;32.93;40.13;;
46749;Laerm;33775;47.992;11.864;2023-07-02T03:49:51;38.30;33.90;40.23;;
46749;Laerm;33775;47.992;11.864;2023-07-02T03:52:16;38.28;32.58;40.43;;
46749;Laerm;33775;47.992;11.864;2023-07-02T03:54:41;38.23;32.93;40.43;;
46749;Laerm;33775;47.992;11.864;2023-07-02T03:57:06;38.31;33.90;40.62;;
46749;Laerm;33775;47.992;11.864;2023-07-02T03:59:31;38.24;32.93;40.62;;
46749;Laerm;33775;47.992;11.864;2023-07-02T04:01:57;38.28;33.44;40.23;;
46749;Laerm;33775;47.992;11.864;2023-07-02T04:04:22;38.19;32.35;40.13;;
46749;Laerm;33775;47.992;11.864;2023-07-02T04:06:47;38.23;33.44;40.80;;
46749;Laerm;33775;47.992;11.864;2023-07-02T04:09:12;38.13;30.89;41.14;;
46749;Laerm;33775;47.992;11.864;2023-07-02T04:11:37;38.15;31.68;40.03;;
46749;Laerm;33775;47.992;11.864;2023-07-02T04:14:03;38.18;34.69;40.13;;
46749;Laerm;33775;47.992;11.864;2023-07-02T04:16:28;37.82;33.44;39.70;;
46749;Laerm;33775;47.992;11.864;2023-07-02T04:18:53;37.77;32.93;39.58;;
46749;Laerm;33775;47.992;11.864;2023-07-02T04:21:18;37.58;32.35;39.81;;
46749;Laerm;33775;47.992;11.864;2023-07-02T04:23:43;37.52;31.68;39.70;;
46749;Laerm;33775;47.992;11.864;2023-07-02T04:26:08;37.38;30.89;39.70;;
46749;Laerm;33775;47.992;11.864;2023-07-02T04:28:34;37.52;31.68;39.35;;
46749;Laerm;33775;47.992;11.864;2023-07-02T04:30:59;37.71;32.93;39.81;;
46749;Laerm;33775;47.992;11.864;2023-07-02T04:33:24;37.70;32.93;45.42;;
46749;Laerm;33775;47.992;11.864;2023-07-02T04:35:49;37.77;32.35;39.81;;
46749;Laerm;33775;47.992;11.864;2023-07-02T04:38:16;37.89;33.44;40.13;;
46749;Laerm;33775;47.992;11.864;2023-07-02T04:40:41;37.95;33.44;40.23;;
46749;Laerm;33775;47.992;11.864;2023-07-02T04:43:09;37.97;34.31;40.13;;
46749;Laerm;33775;47.992;11.864;2023-07-02T04:45:35;38.00;30.89;39.92;;
46749;Laerm;33775;47.992;11.864;2023-07-02T04:48:01;38.03;32.35;40.03;;
46749;Laerm;33775;47.992;11.864;2023-07-02T04:50:26;38.03;32.35;40.13;;
46749;Laerm;33775;47.992;11.864;2023-07-02T04:52:51;37.84;31.68;39.81;;
46749;Laerm;33775;47.992;11.864;2023-07-02T04:55:16;37.78;32.93;39.81;;
46749;Laerm;33775;47.992;11.864;2023-07-02T04:57:41;37.70;32.35;39.58;;
46749;Laerm;33775;47.992;11.864;2023-07-02T05:00:07;37.80;31.68;39.81;;
46749;Laerm;33775;47.992;11.864;2023-07-02T05:02:33;37.89;32.93;39.92;;
46749;Laerm;33775;47.992;11.864;2023-07-02T05:04:58;37.92;31.68;40.03;;
46749;Laerm;33775;47.992;11.864;2023-07-02T05:07:23;37.83;32.35;39.58;;
46749;Laerm;33775;47.992;11.864;2023-07-02T05:09:49;37.73;33.44;39.81;;
46749;Laerm;33775;47.992;11.864;2023-07-02T05:12:16;37.72;33.09;39.78;;
46749;Laerm;33775;47.992;11.864;2023-07-02T05:14:42;37.66;31.68;39.92;;
46749;Laerm;33775;47.992;11.864;2023-07-02T05:17:07;37.66;30.89;39.81;;
46749;Laerm;33775;47.992;11.864;2023-07-02T05:19:32;37.70;30.89;39.92;;
46749;Laerm;33775;47.992;11.864;2023-07-02T05:21:57;37.75;32.35;39.70;;
46749;Laerm;33775;47.992;11.864;2023-07-02T05:24:22;37.84;32.35;39.81;;
46749;Laerm;33775;47.992;11.864;2023-07-02T05:26:47;37.80;31.68;39.70;;
46749;Laerm;33775;47.992;11.864;2023-07-02T05:29:13;37.80;32.35;39.70;;
46749;Laerm;33775;47.992;11.864;2023-07-02T05:31:39;37.86;32.93;39.81;;
46749;Laerm;33775;47.992;11.864;2023-07-02T05:34:04;37.96;30.89;39.81;;
46749;Laerm;33775;47.992;11.864;2023-07-02T05:36:29;37.94;30.89;39.81;;
46749;Laerm;33775;47.992;11.864;2023-07-02T05:38:54;38.55;32.35;40.45;;
46749;Laerm;33775;47.992;11.864;2023-07-02T05:41:20;38.14;32.93;40.23;;
46749;Laerm;33775;47.992;11.864;2023-07-02T05:43:45;37.92;33.44;40.13;;
46749;Laerm;33775;47.992;11.864;2023-07-02T05:46:11;37.91;33.90;39.81;;
46749;Laerm;33775;47.992;11.864;2023-07-02T05:48:37;37.94;31.68;39.92;;
46749;Laerm;33775;47.992;11.864;2023-07-02T05:51:02;37.85;32.93;39.92;;
46749;Laerm;33775;47.992;11.864;2023-07-02T05:53:27;37.73;32.35;39.92;;
46749;Laerm;33775;47.992;11.864;2023-07-02T05:55:52;37.66;31.68;39.46;;
46749;Laerm;33775;47.992;11.864;2023-07-02T05:58:18;37.70;30.89;40.03;;
46749;Laerm;33775;47.992;11.864;2023-07-02T06:00:43;37.61;32.35;39.58;;
46749;Laerm;33775;47.992;11.864;2023-07-02T06:03:14;37.57;29.92;39.92;;
46749;Laerm;33775;47.992;11.864;2023-07-02T06:05:44;37.46;31.68;39.70;;
46749;Laerm;33775;47.992;11.864;2023-07-02T06:08:09;37.61;32.35;39.81;;
46749;Laerm;33775;47.992;11.864;2023-07-02T06:10:34;37.53;32.93;39.46;;
46749;Laerm;33775;47.992;11.864;2023-07-02T06:12:59;37.58;32.35;39.58;;
46749;Laerm;33775;47.992;11.864;2023-07-02T06:15:24;37.64;32.35;39.81;;
46749;Laerm;33775;47.992;11.864;2023-07-02T06:17:49;37.62;30.89;39.70;;
46749;Laerm;33775;47.992;11.864;2023-07-02T06:20:15;37.48;31.68;39.58;;
46749;Laerm;33775;47.992;11.864;2023-07-02T06:22:40;37.37;29.92;39.58;;
46749;Laerm;33775;47.992;11.864;2023-07-02T06:25:07;37.22;31.68;39.34;;
46749;Laerm;33775;47.992;11.864;2023-07-02T06:27:32;37.26;32.35;39.34;;
46749;Laerm;33775;47.992;11.864;2023-07-02T06:29:57;37.30;30.89;39.46;;
46749;Laerm;33775;47.992;11.864;2023-07-02T06:32:22;37.26;29.92;39.46;;
46749;Laerm;33775;47.992;11.864;2023-07-02T06:34:47;37.36;31.68;39.58;;
46749;Laerm;33775;47.992;11.864;2023-07-02T06:37:13;37.26;32.35;39.58;;
46749;Laerm;33775;47.992;11.864;2023-07-02T06:39:38;37.11;31.68;39.57;;
46749;Laerm;33775;47.992;11.864;2023-07-02T06:42:03;37.02;31.68;39.34;;
46749;Laerm;33775;47.992;11.864;2023-07-02T06:44:28;36.85;31.68;39.81;;
46749;Laerm;33775;47.992;11.864;2023-07-02T06:46:54;36.88;29.92;39.34;;
46749;Laerm;33775;47.992;11.864;2023-07-02T06:49:19;36.84;30.89;39.58;;
46749;Laerm;33775;47.992;11.864;2023-07-02T06:51:44;36.77;30.89;39.34;;
46749;Laerm;33775;47.992;11.864;2023-07-02T06:54:10;36.79;31.68;39.70;;
46749;Laerm;33775;47.992;11.864;2023-07-02T06:56:35;36.81;30.89;39.46;;
46749;Laerm;33775;47.992;11.864;2023-07-02T06:59:01;36.91;28.67;39.81;;
46749;Laerm;33775;47.992;11.864;2023-07-02T07:01:26;36.82;30.89;39.34;;
46749;Laerm;33775;47.992;11.864;2023-07-02T07:03:51;36.91;30.89;39.70;;
46749;Laerm;33775;47.992;11.864;2023-07-02T07:06:17;36.95;31.68;39.92;;
46749;Laerm;33775;47.992;11.864;2023-07-02T07:08:42;37.05;31.68;39.68;;
46749;Laerm;33775;47.992;11.864;2023-07-02T07:11:07;37.01;28.67;39.81;;
46749;Laerm;33775;47.992;11.864;2023-07-02T07:13:32;36.71;31.68;39.34;;
46749;Laerm;33775;47.992;11.864;2023-07-02T07:15:57;37.03;30.89;39.58;;
46749;Laerm;33775;47.992;11.864;2023-07-02T07:18:22;37.30;31.68;39.92;;
46749;Laerm;33775;47.992;11.864;2023-07-02T07:20:48;37.28;31.68;39.81;;
46749;Laerm;33775;47.992;11.864;2023-07-02T07:23:13;37.33;31.68;39.34;;
46749;Laerm;33775;47.992;11.864;2023-07-02T07:25:39;37.40;32.00;39.58;;
46749;Laerm;33775;47.992;11.864;2023-07-02T07:28:04;37.37;31.68;40.13;;
46749;Laerm;33775;47.992;11.864;2023-07-02T07:30:29;37.29;29.92;39.46;;
46749;Laerm;33775;47.992;11.864;2023-07-02T07:32:55;37.08;31.68;39.34;;
46749;Laerm;33775;47.992;11.864;2023-07-02T07:35:21;37.27;31.68;39.46;;
46749;Laerm;33775;47.992;11.864;2023-07-02T07:37:46;37.09;30.89;39.46;;
46749;Laerm;33775;47.992;11.864;2023-07-02T07:40:12;37.03;30.89;39.58;;
46749;Laerm;33775;47.992;11.864;2023-07-02T07:42:37;37.24;30.89;39.46;;
46749;Laerm;33775;47.992;11.864;2023-07-02T07:45:03;37.52;32.35;39.78;;
46749;Laerm;33775;47.992;11.864;2023-07-02T07:47:28;37.91;32.35;39.70;;
46749;Laerm;33775;47.992;11.864;2023-07-02T07:49:53;37.81;28.67;39.58;;
46749;Laerm;33775;47.992;11.864;2023-07-02T07:52:19;37.78;32.93;39.70;;
46749;Laerm;33775;47.992;11.864;2023-07-02T07:54:45;37.68;32.93;39.58;;
46749;Laerm;33775;47.992;11.864;2023-07-02T07:57:10;37.83;32.35;39.92;;
46749;Laerm;33775;47.992;11.864;2023-07-02T07:59:35;37.82;32.93;39.70;;
46749;Laerm;33775;47.992;11.864;2023-07-02T08:02:00;37.73;32.93;39.81;;
46749;Laerm;33775;47.992;11.864;2023-07-02T08:04:25;37.69;31.68;39.81;;
46749;Laerm;33775;47.992;11.864;2023-07-02T08:06:50;37.62;32.35;39.70;;
46749;Laerm;33775;47.992;11.864;2023-07-02T08:09:16;37.20;31.68;39.46;;
46749;Laerm;33775;47.992;11.864;2023-07-02T08:11:41;37.27;30.89;39.81;;
46749;Laerm;33775;47.992;11.864;2023-07-02T08:14:06;37.21;32.35;39.34;;
46749;Laerm;33775;47.992;11.864;2023-07-02T08:16:31;37.23;30.89;39.46;;
46749;Laerm;33775;47.992;11.864;2023-07-02T08:18:56;37.20;31.68;39.57;;
46749;Laerm;33775;47.992;11.864;2023-07-02T08:21:22;37.21;30.89;39.46;;
46749;Laerm;33775;47.992;11.864;2023-07-02T08:23:47;37.23;29.92;39.81;;
46749;Laerm;33775;47.992;11.864;2023-07-02T08:26:12;37.21;28.67;39.58;;
46749;Laerm;33775;47.992;11.864;2023-07-02T08:28:39;37.10;31.68;39.35;;
46749;Laerm;33775;47.992;11.864;2023-07-02T08:31:04;37.00;30.89;39.46;;
46749;Laerm;33775;47.992;11.864;2023-07-02T08:33:29;37.03;30.89;39.46;;
46749;Laerm;33775;47.992;11.864;2023-07-02T08:35:54;37.05;30.89;39.34;;
46749;Laerm;33775;47.992;11.864;2023-07-02T08:38:20;36.98;30.89;39.46;;
46749;Laerm;33775;47.992;11.864;2023-07-02T08:40:45;36.94;28.67;39.58;;
46749;Laerm;33775;47.992;11.864;2023-07-02T08:43:10;36.90;29.92;39.70;;
46749;Laerm;33775;47.992;11.864;2023-07-02T08:45:35;36.92;30.89;39.70;;
46749;Laerm;33775;47.992;11.864;2023-07-02T08:48:01;37.01;29.92;39.46;;
46749;Laerm;33775;47.992;11.864;2023-07-02T08:50:26;37.13;31.68;39.92;;
46749;Laerm;33775;47.992;11.864;2023-07-02T08:52:52;37.01;32.00;39.34;;
46749;Laerm;33775;47.992;11.864;2023-07-02T08:55:18;37.00;30.89;39.46;;
46749;Laerm;33775;47.992;11.864;2023-07-02T08:57:47;36.73;30.89;39.70;;
46749;Laerm;33775;47.992;11.864;2023-07-02T09:00:14;36.87;30.89;39.58;;
46749;Laerm;33775;47.992;11.864;2023-07-02T09:02:39;36.87;29.57;39.34;;
46749;Laerm;33775;47.992;11.864;2023-07-02T09:05:05;36.95;30.89;39.58;;
46749;Laerm;33775;47.992;11.864;2023-07-02T09:07:30;37.04;30.89;39.34;;
46749;Laerm;33775;47.992;11.864;2023-07-02T09:09:55;36.97;30.89;40.23;;
46749;Laerm;33775;47.992;11.864;2023-07-02T09:12:30;37.00;29.92;39.70;;
46749;Laerm;33775;47.992;11.864;2023-07-02T09:17:28;36.80;30.89;39.46;;
46749;Laerm;33775;47.992;11.864;2023-07-02T09:19:54;37.01;30.89;39.46;;
46749;Laerm;33775;47.992;11.864;2023-07-02T09:22:19;36.93;29.92;39.34;;
46749;Laerm;33775;47.992;11.864;2023-07-02T09:24:51;36.86;31.68;39.58;;
46749;Laerm;33775;47.992;11.864;2023-07-02T09:27:18;36.94;31.68;39.34;;
46749;Laerm;33775;47.992;11.864;2023-07-02T09:29:43;36.94;30.89;39.34;;
46749;Laerm;33775;47.992;11.864;2023-07-02T09:32:22;36.99;29.92;39.58;;
46749;Laerm;33775;47.992;11.864;2023-07-02T09:34:48;36.83;29.92;39.46;;
46749;Laerm;33775;47.992;11.864;2023-07-02T09:37:13;36.76;31.68;39.21;;
46749;Laerm;33775;47.992;11.864;2023-07-02T09:39:38;37.01;31.68;39.81;;
46749;Laerm;33775;47.992;11.864;2023-07-02T09:42:07;37.01;32.35;39.58;;
46749;Laerm;33775;47.992;11.864;2023-07-02T09:44:33;37.09;32.35;49.60;;
46749;Laerm;33775;47.992;11.864;2023-07-02T09:47:02;37.10;32.35;40.13;;
46749;Laerm;33775;47.992;11.864;2023-07-02T09:49:37;37.20;33.44;40.62;;
46749;Laerm;33775;47.992;11.864;2023-07-02T09:52:06;37.33;31.68;56.52;;
46749;Laerm;33775;47.992;11.864;2023-07-02T09:54:32;37.24;31.68;40.33;;
46749;Laerm;33775;47.992;11.864;2023-07-02T09:57:00;37.24;33.44;40.03;;
46749;Laerm;33775;47.992;11.864;2023-07-02T09:59:26;37.22;32.35;40.23;;
46749;Laerm;33775;47.992;11.864;2023-07-02T10:01:52;37.19;32.35;39.81;;
46749;Laerm;33775;47.992;11.864;2023-07-02T10:04:18;37.15;32.35;40.03;;
46749;Laerm;33775;47.992;11.864;2023-07-02T10:06:44;37.14;32.35;40.33;;
46749;Laerm;33775;47.992;11.864;2023-07-02T10:09:10;37.23;31.68;40.33;;
46749;Laerm;33775;47.992;11.864;2023-07-02T10:11:36;37.39;31.68;40.03;;
46749;Laerm;33775;47.992;11.864;2023-07-02T10:14:01;37.43;32.35;40.03;;
46749;Laerm;33775;47.992;11.864;2023-07-02T10:16:26;37.35;32.93;39.99;;
46749;Laerm;33775;47.992;11.864;2023-07-02T10:18:53;37.21;32.93;40.03;;
46749;Laerm;33775;47.992;11.864;2023-07-02T10:21:18;37.18;31.68;40.13;;
46749;Laerm;33775;47.992;11.864;2023-07-02T10:23:43;37.22;31.68;40.03;;
46749;Laerm;33775;47.992;11.864;2023-07-02T10:26:18;37.24;32.93;40.13;;
46749;Laerm;33775;47.992;11.864;2023-07-02T10:28:59;37.21;32.35;39.81;;
46749;Laerm;33775;47.992;11.864;2023-07-02T10:31:25;37.25;32.35;40.13;;
46749;Laerm;33775;47.992;11.864;2023-07-02T10:33:50;37.25;32.35;39.92;;
46749;Laerm;33775;47.992;11.864;2023-07-02T10:36:19;37.25;31.68;40.23;;
46749;Laerm;33775;47.992;11.864;2023-07-02T10:38:46;37.26;32.93;39.81;;
46749;Laerm;33775;47.992;11.864;2023-07-02T10:41:12;37.25;32.93;40.23;;
46749;Laerm;33775;47.992;11.864;2023-07-02T10:43:37;37.28;31.68;40.03;;
46749;Laerm;33775;47.992;11.864;2023-07-02T10:46:03;37.24;32.35;40.03;;
46749;Laerm;33775;47.992;11.864;2023-07-02T10:48:30;37.25;31.68;40.43;;
46749;Laerm;33775;47.992;11.864;2023-07-02T10:50:55;37.24;32.93;39.92;;
46749;Laerm;33775;47.992;11.864;2023-07-02T10:53:20;37.17;31.68;40.03;;
46749;Laerm;33775;47.992;11.864;2023-07-02T10:55:45;37.18;32.35;40.13;;
46749;Laerm;33775;47.992;11.864;2023-07-02T10:58:12;37.24;32.35;40.03;;
46749;Laerm;33775;47.992;11.864;2023-07-02T11:00:43;37.14;32.93;39.81;;
46749;Laerm;33775;47.992;11.864;2023-07-02T11:03:15;37.15;30.89;40.13;;
46749;Laerm;33775;47.992;11.864;2023-07-02T11:05:41;37.26;31.68;40.03;;
46749;Laerm;33775;47.992;11.864;2023-07-02T11:08:09;37.40;33.44;40.53;;
46749;Laerm;33775;47.992;11.864;2023-07-02T11:10:34;37.59;33.90;40.23;;
46749;Laerm;33775;47.992;11.864;2023-07-02T11:13:09;38.44;32.93;66.59;;
46749;Laerm;33775;47.992;11.864;2023-07-02T11:15:37;38.17;33.90;64.97;;
46749;Laerm;33775;47.992;11.864;2023-07-02T11:18:10;37.67;32.93;40.23;;
46749;Laerm;33775;47.992;11.864;2023-07-02T11:20:35;37.66;33.44;40.62;;
46749;Laerm;33775;47.992;11.864;2023-07-02T11:23:00;37.63;33.44;40.23;;
46749;Laerm;33775;47.992;11.864;2023-07-02T11:25:25;37.59;33.44;40.43;;
46749;Laerm;33775;47.992;11.864;2023-07-02T11:27:51;37.56;32.35;40.13;;
46749;Laerm;33775;47.992;11.864;2023-07-02T11:30:26;37.57;33.90;39.92;;
46749;Laerm;33775;47.992;11.864;2023-07-02T11:32:52;37.59;33.90;40.71;;
46749;Laerm;33775;47.992;11.864;2023-07-02T11:35:18;37.60;33.44;40.08;;
46749;Laerm;33775;47.992;11.864;2023-07-02T11:37:43;37.62;32.93;40.23;;
46749;Laerm;33775;47.992;11.864;2023-07-02T11:40:09;37.64;33.90;40.71;;
46749;Laerm;33775;47.992;11.864;2023-07-02T11:42:34;37.61;33.44;40.80;;
46749;Laerm;33775;47.992;11.864;2023-07-02T11:44:59;37.57;32.93;40.03;;
46749;Laerm;33775;47.992;11.864;2023-07-02T11:47:27;37.61;33.90;40.53;;
46749;Laerm;33775;47.992;11.864;2023-07-02T11:49:53;37.65;32.35;40.43;;
46749;Laerm;33775;47.992;11.864;2023-07-02T11:52:20;37.62;33.44;39.92;;
46749;Laerm;33775;47.992;11.864;2023-07-02T11:54:45;37.54;32.93;40.13;;
46749;Laerm;33775;47.992;11.864;2023-07-02T11:57:10;37.52;33.44;40.13;;
46749;Laerm;33775;47.992;11.864;2023-07-02T11:59:35;37.43;32.93;40.23;;
46749;Laerm;33775;47.992;11.864;2023-07-02T12:02:01;37.38;32.93;40.13;;
46749;Laerm;33775;47.992;11.864;2023-07-02T12:04:26;37.41;34.31;40.13;;
46749;Laerm;33775;47.992;11.864;2023-07-02T12:06:52;37.35;33.44;40.13;;
46749;Laerm;33775;47.992;11.864;2023-07-02T12:09:17;37.29;32.93;40.13;;
46749;Laerm;33775;47.992;11.864;2023-07-02T12:11:42;37.28;32.93;40.43;;
46749;Laerm;33775;47.992;11.864;2023-07-02T12:14:10;37.27;32.35;40.03;;
46749;Laerm;33775;47.992;11.864;2023-07-02T12:16:35;37.26;30.89;39.92;;
46749;Laerm;33775;47.992;11.864;2023-07-02T12:19:00;37.34;32.93;40.23;;
46749;Laerm;33775;47.992;11.864;2023-07-02T12:21:26;37.38;32.35;40.03;;
46749;Laerm;33775;47.992;11.864;2023-07-02T12:23:51;37.36;33.90;39.92;;
46749;Laerm;33775;47.992;11.864;2023-07-02T12:26:16;37.46;33.90;40.03;;
46749;Laerm;33775;47.992;11.864;2023-07-02T12:28:41;37.50;33.44;40.03;;
46749;Laerm;33775;47.992;11.864;2023-07-02T12:31:06;37.49;33.44;40.80;;
46749;Laerm;33775;47.992;11.864;2023-07-02T12:33:32;37.48;32.35;40.23;;
46749;Laerm;33775;47.992;11.864;2023-07-02T12:35:57;37.47;33.44;39.92;;
46749;Laerm;33775;47.992;11.864;2023-07-02T12:38:24;37.46;33.44;40.23;;
46749;Laerm;33775;47.992;11.864;2023-07-02T12:40:49;37.49;33.44;40.23;;
46749;Laerm;33775;47.992;11.864;2023-07-02T12:43:14;37.43;33.55;39.92;;
46749;Laerm;33775;47.992;11.864;2023-07-02T12:45:39;37.44;33.90;40.03;;
46749;Laerm;33775;47.992;11.864;2023-07-02T12:48:05;37.51;33.44;40.33;;
46749;Laerm;33775;47.992;11.864;2023-07-02T12:50:30;37.49;33.90;40.43;;
46749;Laerm;33775;47.992;11.864;2023-07-02T12:52:55;37.48;32.35;40.53;;
46749;Laerm;33775;47.992;11.864;2023-07-02T12:55:20;37.44;33.90;40.13;;
46749;Laerm;33775;47.992;11.864;2023-07-02T12:57:46;37.37;32.35;40.33;;
46749;Laerm;33775;47.992;11.864;2023-07-02T13:00:11;37.38;32.93;40.23;;
46749;Laerm;33775;47.992;11.864;2023-07-02T13:02:36;37.43;32.93;40.13;;
46749;Laerm;33775;47.992;11.864;2023-07-02T13:05:01;37.42;32.93;40.23;;
46749;Laerm;33775;47.992;11.864;2023-07-02T13:07:27;37.45;32.35;39.92;;
46749;Laerm;33775;47.992;11.864;2023-07-02T13:09:55;37.52;32.35;40.03;;
46749;Laerm;33775;47.992;11.864;2023-07-02T13:12:20;37.56;33.90;40.23;;
46749;Laerm;33775;47.992;11.864;2023-07-02T13:14:45;37.53;33.90;39.81;;
46749;Laerm;33775;47.992;11.864;2023-07-02T13:17:10;37.59;32.93;40.43;;
46749;Laerm;33775;47.992;11.864;2023-07-02T13:19:35;37.59;33.90;40.71;;
46749;Laerm;33775;47.992;11.864;2023-07-02T13:22:01;37.59;33.44;40.33;;
46749;Laerm;33775;47.992;11.864;2023-07-02T13:24:27;37.61;33.55;40.43;;
46749;Laerm;33775;47.992;11.864;2023-07-02T13:26:52;37.61;33.44;40.13;;
46749;Laerm;33775;47.992;11.864;2023-07-02T13:29:17;37.62;34.31;40.23;;